Time;durP1;ratioP1;P1;durP2;ratioP2;P2;SDS_P1;SDS_P2;PMS_P1;PMS_P2;Temp;Humidity;BMP_temperature;BMP_pressure;BME280_temperature;BME280_humidity;BME280_pressure;Samples;Min_cycle;Max_cycle;Signal;HPM_P1;HPM_P2
2023/12/29 00:01:59;;;;;;;;;;;12.50;52.90;;;12.70;56.69;100051.53;5072857;28;20376;-36
2023/12/29 00:04:27;;;;;;;;;;;12.60;52.90;;;12.74;56.45;100053.66;5073093;28;19942;-36
2023/12/29 00:06:54;;;;;;;;;;;12.60;52.90;;;12.76;56.36;100057.25;5080402;28;19925;-36
2023/12/29 00:09:29;;;;;;;;;;;12.60;52.90;;;12.79;55.95;100055.06;5081193;28;19924;-37
2023/12/29 00:11:59;;;;;;;;;;;12.60;52.90;;;12.81;55.63;100055.25;5073181;28;20011;-36
2023/12/29 00:14:27;;;;;;;;;;;12.60;52.80;;;12.83;55.65;100059.72;5081291;28;19925;-35
2023/12/29 00:16:57;;;;;;;;;;;12.60;52.80;;;12.83;55.90;100059.72;5072688;28;19931;-36
2023/12/29 00:19:25;;;;;;;;;;;12.70;52.80;;;12.86;55.86;100064.19;5072522;28;20347;-36
2023/12/29 00:21:53;;;;;;;;;;;12.70;52.80;;;12.87;55.31;100056.81;5072126;28;19931;-36
2023/12/29 00:24:20;;;;;;;;;;;12.70;52.80;;;12.89;55.72;100045.31;5072681;28;19973;-36
2023/12/29 00:26:48;;;;;;;;;;;12.70;52.80;;;12.91;55.98;100053.00;5072381;28;19925;-36
2023/12/29 00:29:17;;;;;;;;;;;12.70;52.70;;;12.93;55.40;100041.53;5078856;28;19985;-36
2023/12/29 00:31:45;;;;;;;;;;;12.70;52.70;;;12.92;55.79;100038.81;5088716;28;20295;-36
2023/12/29 00:34:13;;;;;;;;;;;12.70;52.70;;;12.95;55.48;100036.66;5071948;28;19929;-36
2023/12/29 00:36:41;;;;;;;;;;;12.80;52.80;;;12.95;55.62;100054.28;5072109;28;20375;-36
2023/12/29 00:39:09;;;;;;;;;;;12.70;52.70;;;12.94;55.29;100042.41;5071770;28;19931;-36
2023/12/29 00:41:37;;;;;;;;;;;12.70;52.80;;;12.96;55.39;100035.94;5072017;28;19971;-36
2023/12/29 00:44:05;;;;;;;;;;;12.70;52.70;;;12.95;56.01;100029.13;5079414;28;19924;-36
2023/12/29 00:46:34;;;;;;;;;;;12.80;52.80;;;12.96;55.61;100046.00;5075219;28;19978;-37
2023/12/29 00:49:02;;;;;;;;;;;12.80;52.80;;;12.97;55.46;100042.72;5075735;28;20286;-37
2023/12/29 00:51:30;;;;;;;;;;;12.70;52.70;;;12.97;55.84;100047.75;5076287;28;19935;-36
2023/12/29 00:53:58;;;;;;;;;;;12.80;52.70;;;12.96;55.45;100041.88;5072647;28;19924;-36
2023/12/29 00:56:26;;;;;;;;;;;12.80;52.70;;;12.95;55.26;100046.72;5072402;28;20017;-36
2023/12/29 00:58:54;;;;;;;;;;;12.80;52.70;;;12.94;55.78;100037.38;5063472;28;19928;-36
2023/12/29 01:01:22;;;;;;;;;;;12.80;52.70;;;12.95;55.16;100049.25;5080005;28;20031;-36
2023/12/29 01:03:54;;;;;;;;;;;12.80;52.70;;;12.94;56.33;100038.28;5080235;28;20054;-36
2023/12/29 01:06:23;;;;;;;;;;;12.80;52.80;;;12.93;56.28;100036.50;5080220;28;19925;-36
2023/12/29 01:08:51;;;;;;;;;;;12.70;52.70;;;12.93;56.43;100040.63;5071155;28;19946;-36
2023/12/29 01:11:19;;;;;;;;;;;12.80;52.80;;;12.89;56.01;100030.25;5071685;28;19935;-36
2023/12/29 01:13:47;;;;;;;;;;;12.70;52.80;;;12.88;56.04;100017.50;5079652;28;20405;-36
2023/12/29 01:16:15;;;;;;;;;;;12.70;52.80;;;12.86;56.23;100024.84;5071817;28;19931;-36
2023/12/29 01:18:43;;;;;;;;;;;12.70;52.80;;;12.83;56.23;100004.44;5071326;28;19932;-36
2023/12/29 01:21:12;;;;;;;;;;;12.70;52.90;;;12.82;55.56;100012.69;5071959;28;19964;-36
2023/12/29 01:23:40;;;;;;;;;;;12.70;52.90;;;12.80;56.52;100009.09;5079973;28;19924;-36
2023/12/29 01:26:08;;;;;;;;;;;12.70;53.00;;;12.78;56.25;100023.09;5071660;28;19924;-36
2023/12/29 01:28:36;;;;;;;;;;;12.60;53.00;;;12.77;55.96;99998.69;5070710;28;19932;-36
2023/12/29 01:31:04;;;;;;;;;;;12.60;53.00;;;12.76;56.31;99999.44;5076502;28;19924;-36
2023/12/29 01:33:32;;;;;;;;;;;12.60;53.00;;;12.75;56.55;99995.13;5082693;28;19935;-36
2023/12/29 01:36:00;;;;;;;;;;;12.60;53.10;;;12.74;56.21;99995.84;5080025;28;19925;-36
2023/12/29 01:38:42;;;;;;;;;;;12.60;53.10;;;12.75;55.74;99990.09;5070702;28;20376;-36
2023/12/29 01:41:10;;;;;;;;;;;12.60;53.20;;;12.73;55.84;99981.50;5071615;28;20024;-36
2023/12/29 01:44:21;;;;;;;;;;;12.60;53.20;;;12.69;56.43;99969.31;5079765;28;19970;-36
2023/12/29 01:46:49;;;;;;;;;;;12.60;53.20;;;12.74;56.65;99983.28;5071447;28;19925;-36
2023/12/29 01:49:18;;;;;;;;;;;12.60;53.20;;;12.74;56.14;99973.22;5077156;28;20280;-36
2023/12/29 01:51:46;;;;;;;;;;;12.60;53.20;;;12.70;56.36;99975.25;5072605;28;19925;-36
2023/12/29 01:54:15;;;;;;;;;;;12.60;53.20;;;12.75;56.22;99982.56;5071489;28;19924;-36
2023/12/29 01:56:43;;;;;;;;;;;12.60;53.20;;;12.75;56.59;99980.06;5071255;28;19925;-36
2023/12/29 01:59:11;;;;;;;;;;;12.60;53.20;;;12.77;56.11;99978.56;5070655;28;19951;-36
2023/12/29 02:01:51;;;;;;;;;;;12.60;53.20;;;12.79;56.07;99977.13;5074486;28;19929;-36
2023/12/29 02:04:19;;;;;;;;;;;12.60;53.10;;;12.81;56.46;99979.81;5074976;28;19981;-36
2023/12/29 02:06:47;;;;;;;;;;;12.60;53.20;;;12.83;56.49;99979.28;5074913;28;19925;-36
2023/12/29 02:09:17;;;;;;;;;;;12.60;53.70;;;12.85;56.21;99982.84;5082755;28;19928;-36
2023/12/29 02:11:45;;;;;;;;;;;12.70;53.10;;;12.86;55.77;99974.56;5074584;28;19924;-36
2023/12/29 02:14:13;;;;;;;;;;;12.70;53.10;;;12.87;56.58;99961.28;5080397;28;19924;-36
2023/12/29 02:16:43;;;;;;;;;;;12.70;53.10;;;12.88;55.76;99968.09;5076750;28;20383;-35
2023/12/29 02:19:17;;;;;;;;;;;12.70;53.00;;;12.92;56.25;99960.88;5074298;28;19934;-36
2023/12/29 02:21:45;;;;;;;;;;;12.70;53.00;;;12.93;55.64;99963.56;5074543;28;20311;-36
2023/12/29 02:24:13;;;;;;;;;;;12.70;53.00;;;12.93;55.82;99960.16;5075008;28;19978;-36
2023/12/29 02:26:42;;;;;;;;;;;12.70;53.00;;;12.96;55.89;99965.53;5074646;28;19924;-36
2023/12/29 02:29:10;;;;;;;;;;;12.70;53.10;;;12.95;56.13;99951.19;5073995;28;20376;-36
2023/12/29 02:31:39;;;;;;;;;;;12.80;53.10;;;12.96;55.49;99955.47;5089468;28;19975;-36
2023/12/29 02:34:06;;;;;;;;;;;12.70;52.90;;;12.97;55.44;99952.22;5074662;28;19924;-36
2023/12/29 02:36:42;;;;;;;;;;;12.80;53.00;;;12.84;56.28;99930.75;5074230;28;19931;-36
2023/12/29 02:39:10;;;;;;;;;;;12.80;53.10;;;12.97;56.04;99957.25;5073879;28;19979;-36
2023/12/29 02:41:38;;;;;;;;;;;12.80;53.10;;;12.98;56.06;99961.56;5074303;28;19978;-36
2023/12/29 02:44:07;;;;;;;;;;;12.70;53.00;;;12.97;55.96;99949.69;5082691;28;20007;-36
2023/12/29 02:46:35;;;;;;;;;;;12.80;53.20;;;12.96;55.53;99947.94;5074331;28;20372;-36
2023/12/29 02:49:03;;;;;;;;;;;12.80;53.20;;;12.96;56.46;99952.97;5073506;28;19931;-36
2023/12/29 02:51:31;;;;;;;;;;;12.80;53.20;;;12.96;55.98;99942.91;5082385;28;19924;-36
2023/12/29 02:53:59;;;;;;;;;;;12.80;53.20;;;12.96;56.54;99955.47;5074163;28;20479;-36
2023/12/29 02:56:27;;;;;;;;;;;12.80;53.20;;;12.95;56.50;99956.19;5074182;28;19924;-36
2023/12/29 02:58:55;;;;;;;;;;;12.70;53.20;;;12.94;56.21;99954.41;5073135;28;20342;-36
2023/12/29 03:01:24;;;;;;;;;;;12.80;53.30;;;12.94;56.10;99962.84;5073953;28;19930;-36
2023/12/29 03:03:52;;;;;;;;;;;12.80;53.30;;;12.95;56.19;99963.75;5073610;28;19931;-36
2023/12/29 03:06:20;;;;;;;;;;;12.80;53.30;;;12.92;56.02;99961.78;5073766;28;19978;-36
2023/12/29 03:08:48;;;;;;;;;;;12.70;53.20;;;12.93;56.33;99972.72;5075244;28;19930;-36
2023/12/29 03:11:16;;;;;;;;;;;12.80;53.40;;;12.92;56.58;99978.47;5079104;28;20398;-35
2023/12/29 03:13:44;;;;;;;;;;;12.80;53.40;;;12.92;56.70;99986.03;5073294;28;19925;-36
2023/12/29 03:16:12;;;;;;;;;;;12.80;54.10;;;12.89;56.68;99982.47;5073704;28;19934;-36
2023/12/29 03:18:41;;;;;;;;;;;12.70;53.50;;;12.86;56.64;99984.63;5074645;28;19924;-36
2023/12/29 03:21:10;;;;;;;;;;;12.70;53.50;;;12.85;56.49;99977.81;5075912;28;19943;-36
2023/12/29 03:23:38;;;;;;;;;;;12.70;53.70;;;12.82;57.00;99974.97;5073734;28;19947;-36
2023/12/29 03:26:06;;;;;;;;;;;12.70;53.70;;;12.78;56.63;99962.78;5073514;28;19924;-36
2023/12/29 03:28:33;;;;;;;;;;;12.70;53.80;;;12.80;57.00;99978.94;5073165;28;19925;-36
2023/12/29 03:31:01;;;;;;;;;;;12.70;53.80;;;12.78;57.25;99975.34;5074901;28;19931;-36
2023/12/29 03:33:29;;;;;;;;;;;12.60;53.80;;;12.78;57.13;99979.47;5077332;28;20011;-36
2023/12/29 03:35:59;;;;;;;;;;;12.60;53.90;;;12.78;56.94;99971.94;5076271;28;19924;-36
2023/12/29 03:38:26;;;;;;;;;;;12.60;53.90;;;12.76;56.60;99976.81;5077331;28;19978;-36
2023/12/29 03:40:54;;;;;;;;;;;12.60;53.90;;;12.75;57.33;99944.84;5072843;28;20443;-36
2023/12/29 03:43:22;;;;;;;;;;;12.60;54.00;;;12.74;56.71;99948.09;5081396;28;19928;-36
2023/12/29 03:45:50;;;;;;;;;;;12.60;54.10;;;12.74;57.83;99930.50;5082982;28;19924;-36
2023/12/29 03:48:18;;;;;;;;;;;12.60;54.10;;;12.75;57.37;99933.91;5078541;28;19931;-36
2023/12/29 03:50:46;;;;;;;;;;;12.60;54.10;;;12.74;57.34;99933.00;5074139;28;20019;-36
2023/12/29 03:53:15;;;;;;;;;;;12.60;54.10;;;12.76;57.78;99921.50;5079516;28;19924;-36
2023/12/29 03:55:44;;;;;;;;;;;12.60;54.20;;;12.77;57.08;99933.31;5080974;28;19924;-36
2023/12/29 03:58:11;;;;;;;;;;;12.60;54.10;;;12.78;56.76;99924.16;5077046;28;19924;-36
2023/12/29 04:00:41;;;;;;;;;;;12.60;54.10;;;12.79;57.54;99939.44;5083776;28;19928;-36
2023/12/29 04:03:09;;;;;;;;;;;12.60;54.00;;;12.80;56.93;99928.66;5072850;28;19925;-36
2023/12/29 04:05:37;;;;;;;;;;;12.60;54.10;;;12.82;56.87;99922.19;5072573;28;19935;-36
2023/12/29 04:08:05;;;;;;;;;;;12.60;54.00;;;12.83;57.21;99916.44;5064330;28;19970;-36
2023/12/29 04:10:35;;;;;;;;;;;12.70;54.10;;;12.85;57.05;99914.06;5072722;28;20191;-36
2023/12/29 04:13:03;;;;;;;;;;;12.70;54.10;;;12.85;56.24;99897.34;5072339;28;19935;-36
2023/12/29 04:15:31;;;;;;;;;;;12.70;54.10;;;12.87;56.65;99903.47;5072492;28;19931;-36
2023/12/29 04:17:59;;;;;;;;;;;12.70;54.10;;;12.89;56.92;99904.53;5074914;28;19924;-35
2023/12/29 04:20:27;;;;;;;;;;;12.70;54.00;;;12.90;57.04;99901.25;5077385;28;20380;-35
2023/12/29 04:22:55;;;;;;;;;;;12.70;54.00;;;12.93;57.18;99914.91;5080858;28;19931;-35
2023/12/29 04:25:23;;;;;;;;;;;12.70;54.00;;;12.94;57.20;99909.16;5080678;28;20110;-35
2023/12/29 04:27:52;;;;;;;;;;;12.70;54.00;;;12.96;57.12;99905.19;5080295;28;19924;-35
2023/12/29 04:30:20;;;;;;;;;;;12.70;54.00;;;12.95;57.41;99903.41;5072596;28;19976;-36
2023/12/29 04:32:48;;;;;;;;;;;12.80;54.10;;;12.96;57.42;99915.25;5070513;28;20363;-36
2023/12/29 04:35:16;;;;;;;;;;;12.80;54.00;;;12.96;56.86;99910.22;5072265;28;20007;-36
2023/12/29 04:37:45;;;;;;;;;;;12.80;54.00;;;12.96;56.53;99912.75;5071375;28;19924;-36
2023/12/29 04:40:13;;;;;;;;;;;12.80;54.10;;;12.94;56.71;99912.56;5072318;28;20446;-36
2023/12/29 04:42:41;;;;;;;;;;;12.80;54.10;;;12.96;56.68;99915.25;5071831;28;20437;-36
2023/12/29 04:45:10;;;;;;;;;;;12.80;54.00;;;12.96;56.32;99925.31;5072061;28;20304;-36
2023/12/29 04:47:38;;;;;;;;;;;12.80;54.00;;;12.95;57.52;99913.47;5079904;28;20360;-36
2023/12/29 04:50:07;;;;;;;;;;;12.80;54.10;;;12.94;56.93;99917.59;5072301;28;19931;-36
2023/12/29 04:52:36;;;;;;;;;;;12.70;54.10;;;12.94;57.25;99916.69;5071689;28;19929;-36
2023/12/29 04:55:04;;;;;;;;;;;12.80;54.10;;;12.95;56.98;99918.50;5075390;28;19924;-36
2023/12/29 04:57:32;;;;;;;;;;;12.80;54.10;;;12.60;57.26;99852.69;5075765;28;20360;-36
2023/12/29 05:00:00;;;;;;;;;;;12.80;54.20;;;12.93;56.72;99914.91;5080190;28;19928;-36
2023/12/29 05:02:29;;;;;;;;;;;12.80;54.20;;;12.90;57.38;99911.31;5078736;28;19974;-36
2023/12/29 05:04:57;;;;;;;;;;;12.80;54.20;;;12.90;57.63;99917.97;5072768;28;20315;-36
2023/12/29 05:07:25;;;;;;;;;;;12.80;54.30;;;12.88;57.32;99905.25;5079189;28;19936;-36
2023/12/29 05:09:53;;;;;;;;;;;12.70;54.20;;;12.86;57.64;99904.19;5071910;28;19959;-36
2023/12/29 05:12:20;;;;;;;;;;;12.70;54.30;;;12.84;57.25;99903.09;5071981;28;19957;-36
2023/12/29 05:14:48;;;;;;;;;;;12.70;54.30;;;12.83;57.42;99901.34;5071950;28;20376;-36
2023/12/29 05:17:16;;;;;;;;;;;12.70;54.30;;;12.82;57.74;99902.06;5071161;28;19925;-36
2023/12/29 05:19:45;;;;;;;;;;;12.70;54.50;;;12.79;57.40;99901.72;5071284;28;20400;-36
2023/12/29 05:22:17;;;;;;;;;;;12.70;54.40;;;12.78;57.79;99904.97;5080181;28;20376;-36
2023/12/29 05:24:45;;;;;;;;;;;12.60;54.40;;;12.77;57.70;99903.16;5071458;28;20336;-36
2023/12/29 05:27:13;;;;;;;;;;;12.60;54.60;;;12.76;57.45;99906.44;5071154;28;19948;-36
2023/12/29 05:29:41;;;;;;;;;;;12.60;54.60;;;12.74;57.51;99907.88;5071517;28;19924;-36
2023/12/29 05:32:09;;;;;;;;;;;12.60;54.70;;;12.73;57.99;99905.19;5071377;28;19946;-36
2023/12/29 05:34:37;;;;;;;;;;;12.60;54.70;;;12.72;58.07;99909.31;5071463;28;20435;-36
2023/12/29 05:37:06;;;;;;;;;;;12.60;54.80;;;12.69;58.01;99914.03;5074825;28;19925;-36
2023/12/29 05:39:34;;;;;;;;;;;12.60;54.80;;;12.71;58.31;99926.78;5075407;28;19929;-36
2023/12/29 05:42:02;;;;;;;;;;;12.60;54.80;;;12.70;57.49;99919.94;5078064;28;19978;-36
2023/12/29 05:44:29;;;;;;;;;;;12.50;54.70;;;12.71;58.27;99932.66;5080481;28;19924;-36
2023/12/29 05:46:57;;;;;;;;;;;12.50;54.70;;;12.70;58.38;99925.88;5083503;28;19931;-36
2023/12/29 05:49:25;;;;;;;;;;;12.50;54.70;;;12.71;58.08;99926.78;5075045;28;19924;-36
2023/12/29 05:51:53;;;;;;;;;;;12.50;54.70;;;12.72;57.96;99934.44;5074781;28;20383;-36
2023/12/29 05:54:23;;;;;;;;;;;12.60;54.80;;;12.73;57.95;99933.72;5075149;28;19925;-36
2023/12/29 05:56:51;;;;;;;;;;;12.60;54.80;;;12.75;58.43;99929.78;5083353;28;19931;-36
2023/12/29 05:59:19;;;;;;;;;;;12.60;54.80;;;12.75;58.03;99939.84;5074218;28;19925;-36
2023/12/29 06:01:47;;;;;;;;;;;12.50;54.70;;;12.77;57.37;99928.31;5075045;28;19931;-36
2023/12/29 06:04:14;;;;;;;;;;;12.60;54.70;;;12.80;58.38;99920.22;5075281;28;19925;-36
2023/12/29 06:06:42;;;;;;;;;;;12.60;54.70;;;12.81;57.52;99920.38;5083306;28;19924;-36
2023/12/29 06:09:10;;;;;;;;;;;12.60;54.70;;;12.83;57.32;99918.94;5082642;28;19924;-36
2023/12/29 06:11:40;;;;;;;;;;;12.60;54.60;;;12.85;58.11;99922.50;5083070;28;20384;-36
2023/12/29 06:14:07;;;;;;;;;;;12.70;54.70;;;12.88;57.91;99922.84;5074943;28;20011;-36
2023/12/29 06:16:35;;;;;;;;;;;12.70;54.60;;;12.89;57.70;99929.66;5075134;28;19924;-36
2023/12/29 06:19:03;;;;;;;;;;;12.70;54.60;;;12.89;57.71;99919.63;5074122;28;20388;-36
2023/12/29 06:21:31;;;;;;;;;;;12.70;54.50;;;12.93;57.92;99909.88;5074502;28;20380;-35
2023/12/29 06:23:59;;;;;;;;;;;12.70;54.50;;;12.93;57.88;99919.94;5074575;28;20319;-36
2023/12/29 06:26:27;;;;;;;;;;;12.70;54.40;;;12.94;57.42;99914.19;5080339;28;19924;-36
2023/12/29 06:28:56;;;;;;;;;;;12.70;54.40;;;12.94;57.65;99924.25;5084304;28;19928;-36
2023/12/29 06:31:24;;;;;;;;;;;12.70;54.30;;;12.94;57.65;99936.81;5076340;28;19924;-36
2023/12/29 06:33:52;;;;;;;;;;;12.80;54.40;;;12.95;57.27;99933.56;5085409;28;19924;-36
2023/12/29 06:36:20;;;;;;;;;;;12.80;54.40;;;12.95;57.85;99943.63;5084282;28;19925;-36
2023/12/29 06:38:50;;;;;;;;;;;12.70;54.20;;;12.94;57.41;99941.84;5074277;28;19925;-36
2023/12/29 06:41:18;;;;;;;;;;;12.70;54.30;;;12.92;57.29;99928.19;5074200;28;20402;-36
2023/12/29 06:43:46;;;;;;;;;;;12.70;54.30;;;12.91;57.46;99917.25;5074204;28;19932;-36
2023/12/29 06:46:15;;;;;;;;;;;12.70;54.30;;;12.92;57.18;99929.09;5073945;28;19925;-36
2023/12/29 06:48:43;;;;;;;;;;;12.70;54.30;;;12.91;57.44;99932.31;5081029;28;19925;-36
2023/12/29 06:51:17;;;;;;;;;;;12.70;54.30;;;12.90;57.57;99931.44;5082283;28;19928;-36
2023/12/29 06:53:44;;;;;;;;;;;12.70;54.30;;;12.89;57.43;99934.69;5074273;28;20012;-36
2023/12/29 06:56:14;;;;;;;;;;;12.70;54.30;;;12.90;57.28;99945.63;5074169;28;19924;-36
2023/12/29 06:58:42;;;;;;;;;;;12.70;54.20;;;12.89;57.34;99934.69;5073248;28;20444;-36
2023/12/29 07:01:10;;;;;;;;;;;12.70;54.20;;;12.87;57.75;99941.16;5073858;28;19931;-36
2023/12/29 07:03:39;;;;;;;;;;;12.70;54.20;;;12.87;56.73;99950.34;5082264;28;19963;-36
2023/12/29 07:06:07;;;;;;;;;;;12.70;54.20;;;12.85;57.37;99942.63;5082023;28;19933;-36
2023/12/29 07:08:36;;;;;;;;;;;12.70;54.20;;;12.84;58.04;99950.88;5073463;28;19947;-36
2023/12/29 07:11:04;;;;;;;;;;;12.70;54.20;;;12.82;57.31;99951.44;5073742;28;19925;-36
2023/12/29 07:13:32;;;;;;;;;;;12.70;54.20;;;12.80;57.22;99938.72;5073946;28;19924;-37
2023/12/29 07:16:00;;;;;;;;;;;12.70;54.30;;;12.78;57.82;99939.25;5075259;28;20380;-34
2023/12/29 07:18:27;;;;;;;;;;;12.60;54.30;;;12.75;57.38;99938.94;5079242;28;19947;-34
2023/12/29 07:20:57;;;;;;;;;;;12.60;54.40;;;12.76;57.44;99950.78;5073620;28;19959;-36
2023/12/29 07:23:25;;;;;;;;;;;12.60;54.40;;;12.74;57.60;99952.22;5082105;28;19929;-37
2023/12/29 07:25:53;;;;;;;;;;;12.60;54.40;;;12.73;57.98;99951.31;5073187;28;20376;-37
2023/12/29 07:28:20;;;;;;;;;;;12.60;54.50;;;12.72;58.19;99944.50;5072679;28;19924;-36
2023/12/29 07:30:48;;;;;;;;;;;12.60;54.50;;;12.71;58.01;99957.78;5069222;28;19924;-36
2023/12/29 07:33:16;;;;;;;;;;;12.60;54.50;;;12.69;58.09;99949.22;5076966;28;20366;-36
2023/12/29 07:35:44;;;;;;;;;;;12.60;54.50;;;12.70;57.99;99963.56;5085218;28;19931;-36
2023/12/29 07:38:13;;;;;;;;;;;12.60;54.50;;;12.71;57.91;99954.41;5073243;28;19932;-36
2023/12/29 07:40:41;;;;;;;;;;;12.60;54.50;;;12.70;58.32;99940.94;5074268;28;20303;-36
2023/12/29 07:43:09;;;;;;;;;;;12.50;54.40;;;12.71;57.74;99937.69;5073830;28;19933;-36
2023/12/29 07:45:38;;;;;;;;;;;12.50;54.40;;;12.72;57.75;99954.56;5073027;28;20572;-36
2023/12/29 07:48:06;;;;;;;;;;;12.60;54.50;;;12.72;57.52;99939.47;5072546;28;19932;-37
2023/12/29 07:50:38;;;;;;;;;;;12.50;54.40;;;12.74;57.80;99945.59;5072939;28;19931;-36
2023/12/29 07:53:05;;;;;;;;;;;12.60;54.40;;;12.75;56.92;99939.84;5072960;28;19925;-36
2023/12/29 07:55:38;;;;;;;;;;;12.60;54.40;;;12.77;57.60;99943.38;5073043;28;19932;-36
2023/12/29 07:58:06;;;;;;;;;;;12.60;54.40;;;12.79;57.71;99941.94;5074948;28;19932;-37
2023/12/29 08:00:34;;;;;;;;;;;12.60;54.30;;;12.82;57.69;99939.78;5078638;28;20421;-36
2023/12/29 08:03:02;;;;;;;;;;;12.60;54.20;;;12.81;57.33;99945.53;5072768;28;19925;-36
2023/12/29 08:05:30;;;;;;;;;;;12.60;54.20;;;12.84;56.69;99940.81;5072736;28;19931;-36
2023/12/29 08:07:58;;;;;;;;;;;12.60;54.20;;;12.87;57.24;99946.19;5071849;28;20310;-36
2023/12/29 08:10:27;;;;;;;;;;;12.70;54.20;;;12.89;57.43;99941.34;5072325;28;19934;-36
2023/12/29 08:12:56;;;;;;;;;;;12.70;54.10;;;12.89;56.98;99949.78;5080875;28;19935;-36
2023/12/29 08:15:24;;;;;;;;;;;12.70;54.10;;;12.92;56.61;99948.31;5081122;28;20002;-34
2023/12/29 08:17:52;;;;;;;;;;;12.70;54.10;;;12.93;56.89;99945.06;5071839;28;19925;-36
2023/12/29 08:20:21;;;;;;;;;;;12.70;54.10;;;12.96;56.81;99940.41;5072371;28;19924;-36
2023/12/29 08:22:48;;;;;;;;;;;12.70;54.10;;;12.97;57.18;99952.22;5072363;28;20019;-36
2023/12/29 08:25:16;;;;;;;;;;;12.80;54.10;;;12.97;57.20;99943.06;5072436;28;20019;-36
2023/12/29 08:27:44;;;;;;;;;;;12.80;54.20;;;12.97;56.83;99944.66;5080155;28;19928;-36
2023/12/29 08:30:14;;;;;;;;;;;12.80;54.20;;;12.98;57.21;99948.97;5080488;28;19932;-36
2023/12/29 08:32:42;;;;;;;;;;;12.80;54.20;;;12.97;56.62;99947.19;5076263;28;20007;-36
2023/12/29 08:35:10;;;;;;;;;;;12.80;54.20;;;12.96;56.65;99940.41;5071864;28;19924;-37
2023/12/29 08:37:38;;;;;;;;;;;12.80;54.20;;;12.95;56.68;99948.66;5071684;28;20168;-35
2023/12/29 08:40:07;;;;;;;;;;;12.80;54.20;;;12.95;56.86;99938.59;5071790;28;19979;-35
2023/12/29 08:42:35;;;;;;;;;;;12.80;54.20;;;12.96;56.88;99945.44;5080578;28;19924;-37
2023/12/29 08:45:04;;;;;;;;;;;12.70;54.20;;;12.94;56.53;99949.38;5071845;28;19924;-35
2023/12/29 08:47:35;;;;;;;;;;;12.70;54.20;;;12.94;57.48;99951.91;5077078;28;20425;-35
2023/12/29 08:50:04;;;;;;;;;;;12.80;54.40;;;12.95;57.66;99944.53;5074371;28;19924;-35
2023/12/29 08:52:33;;;;;;;;;;;12.70;54.20;;;12.93;56.77;99945.06;5072088;28;20110;-34
2023/12/29 08:55:00;;;;;;;;;;;12.80;54.30;;;12.93;56.94;99945.06;5071856;28;19928;-35
2023/12/29 08:57:28;;;;;;;;;;;12.80;54.30;;;12.90;57.46;99946.50;5071465;28;19970;-35
2023/12/29 08:59:56;;;;;;;;;;;12.80;54.30;;;12.91;57.15;99942.38;5080741;28;19925;-35
2023/12/29 09:02:24;;;;;;;;;;;12.80;54.40;;;12.89;57.72;99948.88;5079451;28;19924;-37
2023/12/29 09:04:53;;;;;;;;;;;12.70;54.30;;;12.86;57.53;99956.97;5072463;28;19929;-35
2023/12/29 09:07:21;;;;;;;;;;;12.70;54.30;;;12.86;57.73;99959.50;5071984;28;20041;-36
2023/12/29 09:09:49;;;;;;;;;;;12.70;54.40;;;12.84;57.92;99960.94;5079271;28;20346;-37
2023/12/29 09:12:17;;;;;;;;;;;12.70;54.50;;;12.83;57.78;99959.16;5071875;28;19924;-37
2023/12/29 09:14:45;;;;;;;;;;;12.70;54.60;;;12.80;58.18;99953.78;5071616;28;19947;-36
2023/12/29 09:17:13;;;;;;;;;;;12.70;54.70;;;12.80;58.35;99966.38;5070927;28;19960;-37
2023/12/29 09:19:41;;;;;;;;;;;12.70;54.70;;;12.78;58.47;99960.25;5072099;28;20165;-36
2023/12/29 09:22:12;;;;;;;;;;;12.60;54.70;;;12.76;57.91;99961.72;5079922;28;19931;-37
2023/12/29 09:24:40;;;;;;;;;;;12.60;54.80;;;12.75;58.34;99944.84;5071648;28;19935;-37
2023/12/29 09:27:08;;;;;;;;;;;12.60;54.90;;;12.74;58.03;99933.00;5071238;28;19935;-37
2023/12/29 09:29:37;;;;;;;;;;;12.60;54.90;;;12.73;58.09;99931.22;5071465;28;19931;-37
2023/12/29 09:32:05;;;;;;;;;;;12.60;55.00;;;12.72;58.01;99934.44;5075028;28;19931;-36
2023/12/29 09:34:33;;;;;;;;;;;12.60;55.10;;;12.71;58.95;99932.66;5071442;28;19924;-36
2023/12/29 09:37:01;;;;;;;;;;;12.60;55.20;;;12.71;58.45;99937.69;5072151;28;19964;-36
2023/12/29 09:39:31;;;;;;;;;;;12.60;55.20;;;12.71;58.27;99947.75;5071417;28;19939;-37
2023/12/29 09:42:00;;;;;;;;;;;12.60;55.20;;;12.71;58.61;99950.25;5079854;28;19935;-36
2023/12/29 09:44:29;;;;;;;;;;;12.60;55.30;;;12.71;58.29;99957.78;5071266;28;19929;-36
2023/12/29 09:46:57;;;;;;;;;;;12.60;55.30;;;12.71;58.78;99947.75;5071566;28;19925;-42
2023/12/29 09:49:24;;;;;;;;;;;12.60;55.20;;;12.73;57.79;99961.38;5079353;28;20300;-37
2023/12/29 09:51:52;;;;;;;;;;;12.60;55.20;;;12.74;58.79;99958.16;5071286;28;19967;-35
2023/12/29 09:54:20;;;;;;;;;;;12.60;55.20;;;12.74;58.22;99953.13;5079897;28;19978;-35
2023/12/29 09:56:51;;;;;;;;;;;12.60;55.10;;;12.78;57.87;99955.22;5070977;28;19960;-35
2023/12/29 09:59:19;;;;;;;;;;;12.60;55.10;;;12.80;58.13;99953.78;5079348;28;19986;-36
2023/12/29 10:01:47;;;;;;;;;;;12.60;55.00;;;12.82;58.85;99972.47;5071776;28;19975;-36
2023/12/29 10:04:15;;;;;;;;;;;12.60;55.00;;;12.84;58.24;99960.94;5079564;28;19924;-36
2023/12/29 10:06:45;;;;;;;;;;;12.70;55.10;;;12.85;58.11;99952.66;5071001;28;19924;-36
2023/12/29 10:09:16;;;;;;;;;;;12.60;55.00;;;12.86;58.13;99954.47;5070329;28;19931;-37
2023/12/29 10:11:44;;;;;;;;;;;12.70;55.00;;;12.90;57.27;99958.19;5071180;28;19963;-36
2023/12/29 10:14:19;;;;;;;;;;;12.70;54.90;;;12.90;57.94;99951.53;5070928;28;19931;-37
2023/12/29 10:16:50;;;;;;;;;;;12.70;54.90;;;12.95;57.50;99952.06;5079628;28;20384;-37
2023/12/29 10:19:22;;;;;;;;;;;12.70;54.80;;;12.97;57.66;99957.25;5070473;28;20027;-36
2023/12/29 10:21:54;;;;;;;;;;;12.70;54.80;;;12.96;57.42;99968.06;5073236;28;20015;-35
2023/12/29 10:24:22;;;;;;;;;;;12.70;54.70;;;12.98;57.33;99959.94;5083128;28;19967;-35
2023/12/29 10:26:52;;;;;;;;;;;12.80;54.80;;;12.98;58.14;99948.97;5074945;28;20008;-36
2023/12/29 10:29:21;;;;;;;;;;;12.80;54.80;;;12.98;58.20;99954.91;5073468;28;19924;-36
2023/12/29 10:31:49;;;;;;;;;;;12.80;54.90;;;12.97;57.58;99957.25;5091274;22;19935;-33
2023/12/29 10:34:18;;;;;;;;;;;12.80;54.80;;;12.97;57.68;99957.25;5054545;28;19929;-32
2023/12/29 10:36:49;;;;;;;;;;;12.70;54.70;;;12.97;58.24;99942.16;5054660;28;19925;-30
2023/12/29 10:39:17;;;;;;;;;;;12.70;54.70;;;12.95;57.62;99948.66;5053916;28;20006;-33
2023/12/29 10:41:45;;;;;;;;;;;12.80;54.90;;;12.93;58.24;99940.94;5047885;28;20027;-32
2023/12/29 10:44:13;;;;;;;;;;;12.70;54.90;;;12.92;57.97;99958.38;5053065;28;19947;-32
2023/12/29 10:46:42;;;;;;;;;;;12.70;54.90;;;12.90;58.45;99941.50;5054264;28;19928;-35
2023/12/29 10:49:11;;;;;;;;;;;12.70;54.90;;;12.90;57.84;99941.50;5053467;28;20364;-31
2023/12/29 10:51:40;;;;;;;;;;;12.70;54.90;;;12.91;57.99;99942.38;5054224;28;19970;-33
2023/12/29 10:54:07;;;;;;;;;;;12.70;55.00;;;12.89;57.95;99932.19;5052793;28;20376;-35
2023/12/29 10:56:35;;;;;;;;;;;12.70;55.00;;;12.88;58.89;99937.94;5034589;28;19925;-35
2023/12/29 10:59:04;;;;;;;;;;;12.70;55.00;;;12.88;58.29;99932.00;5051059;28;19931;-35
2023/12/29 11:01:32;;;;;;;;;;;12.70;55.10;;;12.86;57.83;99936.88;5050150;28;19991;-36
2023/12/29 11:04:03;;;;;;;;;;;12.70;55.00;;;12.86;58.18;99958.59;5051443;28;19932;-35
2023/12/29 11:06:33;;;;;;;;;;;12.70;55.00;;;12.83;58.11;99944.09;5054209;28;20358;-34
2023/12/29 11:09:00;;;;;;;;;;;12.70;55.00;;;12.82;57.70;99932.25;5045855;28;19925;-34
2023/12/29 11:11:28;;;;;;;;;;;12.70;55.00;;;12.75;58.30;99919.72;5053972;28;20396;-36
2023/12/29 11:13:56;;;;;;;;;;;12.70;55.20;;;12.70;58.56;99900.75;5053584;28;20487;-37
2023/12/29 11:16:24;;;;;;;;;;;12.60;55.20;;;12.77;58.51;99918.25;5047339;28;19925;-36
2023/12/29 11:18:52;;;;;;;;;;;12.60;55.20;;;12.76;58.90;99916.50;5054909;28;19924;-37
2023/12/29 11:21:22;;;;;;;;;;;12.60;55.30;;;12.74;58.66;99927.97;5052727;28;19929;-37
2023/12/29 11:23:50;;;;;;;;;;;12.60;55.30;;;12.73;58.93;99916.13;5050347;28;19925;-38